Página principal
METAR-TAF:

METAR-TAF

Aeroportos :

Curaçao, Antilhas Neerlandesas

Aeroporto Internacional Hato

latitude: 12-12N, longitude: 068-58W, altura: 9 m

Observação actual do tempo

O boletim foi feito há 43 minutos, às 13:00 UTC
Vento 14 kt de es-sudeste
Temperatura 30°C
Humidade 66%
Pressão 1013 hPa
Visibilidade 10 km ou mais
Nuvens dispersasa uma altura de 2000 ft

METAR: TNCC 241300Z 11014KT 9999 SCT020 30/23 Q1013 NOSIG

Hora: 09:43 (13:43 UTC)

Previsão

O boletim foi feito há 3 horas e 43 minutos, às 10:00 UTC
Previsão válida de 24 às 12 UTC a 25 às 12 UTC
Vento 13 kt de este
Visibilidade 10 km ou mais
Nuvens dispersasa uma altura de 1800 ft

TAF: TNCC 241000Z 2412/2512 09013KT 9999 SCT018

Observações e previsões do tempo de mais de 4000 aeroportos (mensagens METAR e TAF).

As estações disponíveis são os pontos amarelos e vermelhos sobre o mapa.

Mova o rato sobre o mapa para ver o nome da estação.

Depois clique no ponto para visualizar as observações e previsões meteorológicas.

Para alterar o mapa : clique nos botões verdes com uma cruz preta para aumentar o zoom; no botão verde com uma pitada de zoom; ou nas setas verdes para mapas adjacentes.


METAR-TAF: